sensor_id;sensor_type;location;lat;lon;timestamp;P1;durP1;ratioP1;P2;durP2;ratioP2
42124;SDS011;27787;44.594;11.046;2023-05-19T00:02:27;12.68;;;3.42;;
42124;SDS011;27787;44.594;11.046;2023-05-19T00:05:16;8.32;;;3.00;;
42124;SDS011;27787;44.594;11.046;2023-05-19T00:08:01;6.70;;;3.05;;
42124;SDS011;27787;44.594;11.046;2023-05-19T00:10:46;5.45;;;2.50;;
42124;SDS011;27787;44.594;11.046;2023-05-19T00:13:31;11.20;;;2.80;;
42124;SDS011;27787;44.594;11.046;2023-05-19T00:16:15;5.25;;;2.75;;
42124;SDS011;27787;44.594;11.046;2023-05-19T00:19:00;9.15;;;2.50;;
42124;SDS011;27787;44.594;11.046;2023-05-19T00:21:46;7.30;;;3.08;;
42124;SDS011;27787;44.594;11.046;2023-05-19T00:24:30;6.22;;;2.90;;
42124;SDS011;27787;44.594;11.046;2023-05-19T00:27:14;4.10;;;2.70;;
42124;SDS011;27787;44.594;11.046;2023-05-19T00:29:58;6.75;;;3.38;;
42124;SDS011;27787;44.594;11.046;2023-05-19T00:32:43;4.35;;;2.80;;
42124;SDS011;27787;44.594;11.046;2023-05-19T00:35:27;6.82;;;2.78;;
42124;SDS011;27787;44.594;11.046;2023-05-19T00:38:11;7.68;;;2.70;;
42124;SDS011;27787;44.594;11.046;2023-05-19T00:40:55;9.23;;;2.70;;
42124;SDS011;27787;44.594;11.046;2023-05-19T00:43:39;6.85;;;2.92;;
42124;SDS011;27787;44.594;11.046;2023-05-19T00:46:23;7.50;;;2.50;;
42124;SDS011;27787;44.594;11.046;2023-05-19T00:49:08;4.47;;;3.00;;
42124;SDS011;27787;44.594;11.046;2023-05-19T00:51:52;12.27;;;2.67;;
42124;SDS011;27787;44.594;11.046;2023-05-19T00:54:37;2.55;;;2.15;;
42124;SDS011;27787;44.594;11.046;2023-05-19T00:57:21;6.32;;;2.88;;
42124;SDS011;27787;44.594;11.046;2023-05-19T01:00:06;6.68;;;2.63;;
42124;SDS011;27787;44.594;11.046;2023-05-19T01:02:50;5.05;;;2.85;;
42124;SDS011;27787;44.594;11.046;2023-05-19T01:05:37;11.25;;;2.60;;
42124;SDS011;27787;44.594;11.046;2023-05-19T01:08:25;6.38;;;2.60;;
42124;SDS011;27787;44.594;11.046;2023-05-19T01:11:09;4.55;;;2.63;;
42124;SDS011;27787;44.594;11.046;2023-05-19T01:13:54;4.90;;;2.85;;
42124;SDS011;27787;44.594;11.046;2023-05-19T01:16:39;5.50;;;3.08;;
42124;SDS011;27787;44.594;11.046;2023-05-19T01:28:30;5.25;;;2.67;;
42124;SDS011;27787;44.594;11.046;2023-05-19T01:31:33;3.45;;;2.53;;
42124;SDS011;27787;44.594;11.046;2023-05-19T01:34:19;5.82;;;2.65;;
42124;SDS011;27787;44.594;11.046;2023-05-19T01:37:06;6.05;;;2.45;;
42124;SDS011;27787;44.594;11.046;2023-05-19T01:39:51;8.32;;;2.83;;
42124;SDS011;27787;44.594;11.046;2023-05-19T01:42:38;6.15;;;2.75;;
42124;SDS011;27787;44.594;11.046;2023-05-19T01:45:24;6.88;;;2.65;;
42124;SDS011;27787;44.594;11.046;2023-05-19T01:48:10;7.88;;;2.60;;
42124;SDS011;27787;44.594;11.046;2023-05-19T01:50:56;5.32;;;2.67;;
42124;SDS011;27787;44.594;11.046;2023-05-19T01:53:40;4.55;;;2.50;;
42124;SDS011;27787;44.594;11.046;2023-05-19T02:09:11;5.57;;;2.40;;
42124;SDS011;27787;44.594;11.046;2023-05-19T02:17:53;7.60;;;3.08;;
42124;SDS011;27787;44.594;11.046;2023-05-19T02:20:40;8.68;;;2.30;;
42124;SDS011;27787;44.594;11.046;2023-05-19T02:23:25;3.65;;;2.40;;
42124;SDS011;27787;44.594;11.046;2023-05-19T02:26:09;8.02;;;2.88;;
42124;SDS011;27787;44.594;11.046;2023-05-19T02:28:54;7.72;;;2.55;;
42124;SDS011;27787;44.594;11.046;2023-05-19T02:31:38;6.75;;;2.25;;
42124;SDS011;27787;44.594;11.046;2023-05-19T02:34:23;4.60;;;2.88;;
42124;SDS011;27787;44.594;11.046;2023-05-19T02:37:07;9.23;;;2.47;;
42124;SDS011;27787;44.594;11.046;2023-05-19T02:39:51;6.82;;;2.70;;
42124;SDS011;27787;44.594;11.046;2023-05-19T02:42:35;10.43;;;3.13;;
42124;SDS011;27787;44.594;11.046;2023-05-19T02:45:20;9.00;;;3.10;;
42124;SDS011;27787;44.594;11.046;2023-05-19T02:48:04;4.05;;;2.20;;
42124;SDS011;27787;44.594;11.046;2023-05-19T02:50:48;5.53;;;2.72;;
42124;SDS011;27787;44.594;11.046;2023-05-19T02:53:33;6.60;;;3.05;;
42124;SDS011;27787;44.594;11.046;2023-05-19T02:56:17;5.50;;;2.70;;
42124;SDS011;27787;44.594;11.046;2023-05-19T02:59:01;6.80;;;3.22;;
42124;SDS011;27787;44.594;11.046;2023-05-19T03:01:46;6.78;;;2.88;;
42124;SDS011;27787;44.594;11.046;2023-05-19T03:04:30;7.90;;;3.00;;
42124;SDS011;27787;44.594;11.046;2023-05-19T03:07:15;5.68;;;2.90;;
42124;SDS011;27787;44.594;11.046;2023-05-19T03:09:59;4.47;;;3.15;;
42124;SDS011;27787;44.594;11.046;2023-05-19T03:12:46;7.43;;;3.13;;
42124;SDS011;27787;44.594;11.046;2023-05-19T03:15:30;5.68;;;3.40;;
42124;SDS011;27787;44.594;11.046;2023-05-19T03:18:15;5.60;;;3.38;;
42124;SDS011;27787;44.594;11.046;2023-05-19T03:21:00;6.60;;;3.42;;
42124;SDS011;27787;44.594;11.046;2023-05-19T03:23:44;5.45;;;3.30;;
42124;SDS011;27787;44.594;11.046;2023-05-19T03:26:30;4.95;;;3.50;;
42124;SDS011;27787;44.594;11.046;2023-05-19T03:29:14;10.52;;;4.00;;
42124;SDS011;27787;44.594;11.046;2023-05-19T03:31:59;10.43;;;3.45;;
42124;SDS011;27787;44.594;11.046;2023-05-19T03:34:44;6.38;;;3.65;;
42124;SDS011;27787;44.594;11.046;2023-05-19T03:37:28;9.43;;;3.97;;
42124;SDS011;27787;44.594;11.046;2023-05-19T03:40:13;7.28;;;3.47;;
42124;SDS011;27787;44.594;11.046;2023-05-19T03:43:01;5.35;;;3.55;;
42124;SDS011;27787;44.594;11.046;2023-05-19T03:45:45;8.82;;;3.53;;
42124;SDS011;27787;44.594;11.046;2023-05-19T03:48:49;5.60;;;3.58;;
42124;SDS011;27787;44.594;11.046;2023-05-19T03:51:37;10.02;;;3.78;;
42124;SDS011;27787;44.594;11.046;2023-05-19T03:54:34;6.28;;;3.65;;
42124;SDS011;27787;44.594;11.046;2023-05-19T03:57:19;7.82;;;3.83;;
42124;SDS011;27787;44.594;11.046;2023-05-19T04:00:05;7.90;;;4.28;;
42124;SDS011;27787;44.594;11.046;2023-05-19T04:02:55;5.03;;;3.70;;
42124;SDS011;27787;44.594;11.046;2023-05-19T04:05:40;14.38;;;3.70;;
42124;SDS011;27787;44.594;11.046;2023-05-19T04:08:24;7.15;;;3.45;;
42124;SDS011;27787;44.594;11.046;2023-05-19T04:11:08;9.13;;;4.00;;
42124;SDS011;27787;44.594;11.046;2023-05-19T04:13:53;7.18;;;3.83;;
42124;SDS011;27787;44.594;11.046;2023-05-19T04:16:37;6.10;;;3.90;;
42124;SDS011;27787;44.594;11.046;2023-05-19T04:19:21;7.60;;;3.90;;
42124;SDS011;27787;44.594;11.046;2023-05-19T04:22:06;7.45;;;4.35;;
42124;SDS011;27787;44.594;11.046;2023-05-19T04:24:49;9.88;;;4.90;;
42124;SDS011;27787;44.594;11.046;2023-05-19T04:27:35;10.18;;;3.85;;
42124;SDS011;27787;44.594;11.046;2023-05-19T04:30:23;8.20;;;3.72;;
42124;SDS011;27787;44.594;11.046;2023-05-19T04:33:08;9.50;;;3.85;;
42124;SDS011;27787;44.594;11.046;2023-05-19T04:35:53;6.60;;;3.97;;
42124;SDS011;27787;44.594;11.046;2023-05-19T04:38:36;13.20;;;4.43;;
42124;SDS011;27787;44.594;11.046;2023-05-19T04:41:23;6.53;;;4.10;;
42124;SDS011;27787;44.594;11.046;2023-05-19T04:44:08;8.00;;;4.32;;
42124;SDS011;27787;44.594;11.046;2023-05-19T04:46:52;9.85;;;3.47;;
42124;SDS011;27787;44.594;11.046;2023-05-19T04:49:39;8.25;;;3.50;;
42124;SDS011;27787;44.594;11.046;2023-05-19T04:52:23;6.20;;;3.45;;
42124;SDS011;27787;44.594;11.046;2023-05-19T04:55:08;5.28;;;3.63;;
42124;SDS011;27787;44.594;11.046;2023-05-19T04:57:55;6.40;;;3.80;;
42124;SDS011;27787;44.594;11.046;2023-05-19T05:00:40;13.50;;;4.23;;
42124;SDS011;27787;44.594;11.046;2023-05-19T05:03:25;9.32;;;3.50;;
42124;SDS011;27787;44.594;11.046;2023-05-19T05:06:09;13.30;;;4.55;;
42124;SDS011;27787;44.594;11.046;2023-05-19T05:11:39;5.82;;;4.10;;
42124;SDS011;27787;44.594;11.046;2023-05-19T05:14:26;9.52;;;4.18;;
42124;SDS011;27787;44.594;11.046;2023-05-19T05:17:10;7.72;;;4.18;;
42124;SDS011;27787;44.594;11.046;2023-05-19T05:19:56;8.25;;;4.57;;
42124;SDS011;27787;44.594;11.046;2023-05-19T05:22:40;8.00;;;4.45;;
42124;SDS011;27787;44.594;11.046;2023-05-19T05:25:26;12.20;;;3.70;;
42124;SDS011;27787;44.594;11.046;2023-05-19T05:28:10;9.10;;;4.38;;
42124;SDS011;27787;44.594;11.046;2023-05-19T05:30:55;7.22;;;4.28;;
42124;SDS011;27787;44.594;11.046;2023-05-19T05:33:41;6.05;;;4.20;;
42124;SDS011;27787;44.594;11.046;2023-05-19T05:36:26;9.38;;;4.07;;
42124;SDS011;27787;44.594;11.046;2023-05-19T05:39:11;8.18;;;4.15;;
42124;SDS011;27787;44.594;11.046;2023-05-19T05:45:07;11.30;;;4.28;;
42124;SDS011;27787;44.594;11.046;2023-05-19T05:47:52;7.13;;;3.80;;
42124;SDS011;27787;44.594;11.046;2023-05-19T05:50:37;8.43;;;4.03;;
42124;SDS011;27787;44.594;11.046;2023-05-19T05:53:21;5.78;;;4.00;;
42124;SDS011;27787;44.594;11.046;2023-05-19T05:56:10;14.02;;;4.50;;
42124;SDS011;27787;44.594;11.046;2023-05-19T05:59:01;7.00;;;4.60;;
42124;SDS011;27787;44.594;11.046;2023-05-19T06:01:46;8.02;;;4.72;;
42124;SDS011;27787;44.594;11.046;2023-05-19T06:04:32;10.65;;;5.22;;
42124;SDS011;27787;44.594;11.046;2023-05-19T06:07:17;9.25;;;5.13;;
42124;SDS011;27787;44.594;11.046;2023-05-19T06:10:01;10.75;;;5.43;;
42124;SDS011;27787;44.594;11.046;2023-05-19T06:12:46;10.02;;;5.45;;
42124;SDS011;27787;44.594;11.046;2023-05-19T06:15:32;9.73;;;5.28;;
42124;SDS011;27787;44.594;11.046;2023-05-19T06:18:20;9.45;;;5.65;;
42124;SDS011;27787;44.594;11.046;2023-05-19T06:21:05;16.45;;;6.28;;
42124;SDS011;27787;44.594;11.046;2023-05-19T06:23:50;11.73;;;6.90;;
42124;SDS011;27787;44.594;11.046;2023-05-19T06:26:35;12.70;;;6.65;;
42124;SDS011;27787;44.594;11.046;2023-05-19T06:29:19;14.20;;;7.97;;
42124;SDS011;27787;44.594;11.046;2023-05-19T06:32:07;17.75;;;8.27;;
42124;SDS011;27787;44.594;11.046;2023-05-19T06:34:52;17.92;;;9.05;;
42124;SDS011;27787;44.594;11.046;2023-05-19T06:37:37;15.07;;;8.85;;
42124;SDS011;27787;44.594;11.046;2023-05-19T06:40:22;14.60;;;7.88;;
42124;SDS011;27787;44.594;11.046;2023-05-19T06:43:06;15.73;;;8.25;;
42124;SDS011;27787;44.594;11.046;2023-05-19T06:46:16;12.82;;;7.28;;
42124;SDS011;27787;44.594;11.046;2023-05-19T06:49:03;14.73;;;8.35;;
42124;SDS011;27787;44.594;11.046;2023-05-19T06:51:52;13.93;;;6.72;;
42124;SDS011;27787;44.594;11.046;2023-05-19T06:54:38;11.65;;;6.90;;
42124;SDS011;27787;44.594;11.046;2023-05-19T06:57:22;13.13;;;5.85;;
42124;SDS011;27787;44.594;11.046;2023-05-19T07:00:07;13.07;;;6.85;;
42124;SDS011;27787;44.594;11.046;2023-05-19T07:02:55;10.98;;;5.20;;
42124;SDS011;27787;44.594;11.046;2023-05-19T07:05:39;10.35;;;5.40;;
42124;SDS011;27787;44.594;11.046;2023-05-19T07:08:23;10.75;;;5.65;;
42124;SDS011;27787;44.594;11.046;2023-05-19T07:11:07;8.52;;;4.90;;
42124;SDS011;27787;44.594;11.046;2023-05-19T07:13:51;10.65;;;5.65;;
42124;SDS011;27787;44.594;11.046;2023-05-19T07:16:41;8.32;;;5.10;;
42124;SDS011;27787;44.594;11.046;2023-05-19T07:19:25;17.08;;;7.07;;
42124;SDS011;27787;44.594;11.046;2023-05-19T07:22:11;12.60;;;5.00;;
42124;SDS011;27787;44.594;11.046;2023-05-19T07:24:55;8.73;;;5.68;;
42124;SDS011;27787;44.594;11.046;2023-05-19T07:27:40;11.57;;;6.38;;
42124;SDS011;27787;44.594;11.046;2023-05-19T07:30:26;11.45;;;6.72;;
42124;SDS011;27787;44.594;11.046;2023-05-19T07:33:11;14.15;;;7.05;;
42124;SDS011;27787;44.594;11.046;2023-05-19T07:35:56;15.30;;;6.70;;
42124;SDS011;27787;44.594;11.046;2023-05-19T07:38:40;15.63;;;5.70;;
42124;SDS011;27787;44.594;11.046;2023-05-19T07:41:25;13.93;;;6.35;;
42124;SDS011;27787;44.594;11.046;2023-05-19T07:44:12;10.63;;;6.45;;
42124;SDS011;27787;44.594;11.046;2023-05-19T07:46:57;13.52;;;7.38;;
42124;SDS011;27787;44.594;11.046;2023-05-19T07:49:43;14.45;;;7.15;;
42124;SDS011;27787;44.594;11.046;2023-05-19T07:52:27;13.43;;;7.60;;
42124;SDS011;27787;44.594;11.046;2023-05-19T07:55:11;13.45;;;7.95;;
42124;SDS011;27787;44.594;11.046;2023-05-19T07:57:56;14.80;;;8.67;;
42124;SDS011;27787;44.594;11.046;2023-05-19T08:00:40;14.43;;;7.78;;
42124;SDS011;27787;44.594;11.046;2023-05-19T08:03:28;14.70;;;7.60;;
42124;SDS011;27787;44.594;11.046;2023-05-19T08:06:14;9.35;;;6.05;;
42124;SDS011;27787;44.594;11.046;2023-05-19T08:08:59;15.87;;;8.43;;
42124;SDS011;27787;44.594;11.046;2023-05-19T08:11:43;23.37;;;9.17;;
42124;SDS011;27787;44.594;11.046;2023-05-19T08:14:32;17.27;;;8.88;;
42124;SDS011;27787;44.594;11.046;2023-05-19T08:17:17;15.07;;;8.20;;
42124;SDS011;27787;44.594;11.046;2023-05-19T08:20:02;16.92;;;9.15;;
42124;SDS011;27787;44.594;11.046;2023-05-19T08:22:52;14.95;;;7.63;;
42124;SDS011;27787;44.594;11.046;2023-05-19T08:25:37;16.10;;;6.97;;
42124;SDS011;27787;44.594;11.046;2023-05-19T08:28:23;11.95;;;6.65;;
42124;SDS011;27787;44.594;11.046;2023-05-19T08:31:07;12.77;;;7.40;;
42124;SDS011;27787;44.594;11.046;2023-05-19T08:33:52;15.10;;;7.78;;
42124;SDS011;27787;44.594;11.046;2023-05-19T08:36:35;13.57;;;7.63;;
42124;SDS011;27787;44.594;11.046;2023-05-19T08:39:19;18.25;;;9.07;;
42124;SDS011;27787;44.594;11.046;2023-05-19T08:42:10;14.63;;;7.53;;
42124;SDS011;27787;44.594;11.046;2023-05-19T08:44:56;15.65;;;8.75;;
42124;SDS011;27787;44.594;11.046;2023-05-19T08:47:41;21.70;;;10.32;;
42124;SDS011;27787;44.594;11.046;2023-05-19T08:50:30;16.00;;;7.97;;
42124;SDS011;27787;44.594;11.046;2023-05-19T08:53:19;13.25;;;6.80;;
42124;SDS011;27787;44.594;11.046;2023-05-19T08:58:58;9.85;;;6.47;;
42124;SDS011;27787;44.594;11.046;2023-05-19T09:01:45;11.82;;;6.50;;
42124;SDS011;27787;44.594;11.046;2023-05-19T09:04:30;11.73;;;5.53;;
42124;SDS011;27787;44.594;11.046;2023-05-19T09:07:15;8.50;;;5.82;;
42124;SDS011;27787;44.594;11.046;2023-05-19T09:10:01;9.35;;;5.97;;
42124;SDS011;27787;44.594;11.046;2023-05-19T09:12:45;10.75;;;5.82;;
42124;SDS011;27787;44.594;11.046;2023-05-19T09:15:30;8.93;;;6.28;;
42124;SDS011;27787;44.594;11.046;2023-05-19T09:18:18;10.70;;;5.75;;
42124;SDS011;27787;44.594;11.046;2023-05-19T09:21:03;11.02;;;5.95;;
42124;SDS011;27787;44.594;11.046;2023-05-19T09:23:49;11.73;;;5.88;;
42124;SDS011;27787;44.594;11.046;2023-05-19T09:29:21;10.10;;;5.68;;
42124;SDS011;27787;44.594;11.046;2023-05-19T09:32:06;10.60;;;5.05;;
42124;SDS011;27787;44.594;11.046;2023-05-19T09:34:52;10.38;;;4.88;;
42124;SDS011;27787;44.594;11.046;2023-05-19T09:37:40;6.97;;;4.82;;
42124;SDS011;27787;44.594;11.046;2023-05-19T09:40:31;9.38;;;4.85;;
42124;SDS011;27787;44.594;11.046;2023-05-19T09:43:20;11.93;;;5.18;;
42124;SDS011;27787;44.594;11.046;2023-05-19T09:46:45;9.00;;;4.10;;
42124;SDS011;27787;44.594;11.046;2023-05-19T09:49:44;5.38;;;3.60;;
42124;SDS011;27787;44.594;11.046;2023-05-19T09:52:36;5.93;;;3.65;;
42124;SDS011;27787;44.594;11.046;2023-05-19T09:58:41;5.68;;;3.67;;
42124;SDS011;27787;44.594;11.046;2023-05-19T10:01:25;5.17;;;3.50;;
42124;SDS011;27787;44.594;11.046;2023-05-19T10:04:10;6.63;;;3.15;;
42124;SDS011;27787;44.594;11.046;2023-05-19T10:06:55;6.20;;;3.13;;
42124;SDS011;27787;44.594;11.046;2023-05-19T10:09:44;10.80;;;3.88;;
42124;SDS011;27787;44.594;11.046;2023-05-19T10:12:30;6.88;;;3.70;;
42124;SDS011;27787;44.594;11.046;2023-05-19T10:15:15;7.18;;;3.50;;
42124;SDS011;27787;44.594;11.046;2023-05-19T10:18:00;9.15;;;3.92;;
42124;SDS011;27787;44.594;11.046;2023-05-19T10:20:46;6.03;;;3.53;;
42124;SDS011;27787;44.594;11.046;2023-05-19T10:23:33;5.63;;;3.33;;
42124;SDS011;27787;44.594;11.046;2023-05-19T10:26:17;5.07;;;3.50;;
42124;SDS011;27787;44.594;11.046;2023-05-19T10:29:02;6.78;;;4.00;;
42124;SDS011;27787;44.594;11.046;2023-05-19T10:31:47;8.43;;;3.55;;
42124;SDS011;27787;44.594;11.046;2023-05-19T10:40:14;6.32;;;3.58;;
42124;SDS011;27787;44.594;11.046;2023-05-19T10:43:14;7.65;;;3.40;;
42124;SDS011;27787;44.594;11.046;2023-05-19T10:46:08;5.72;;;3.67;;
42124;SDS011;27787;44.594;11.046;2023-05-19T10:48:52;6.05;;;3.90;;
42124;SDS011;27787;44.594;11.046;2023-05-19T10:51:37;5.80;;;3.75;;
42124;SDS011;27787;44.594;11.046;2023-05-19T10:54:40;7.78;;;3.53;;
42124;SDS011;27787;44.594;11.046;2023-05-19T10:57:25;8.70;;;3.17;;
42124;SDS011;27787;44.594;11.046;2023-05-19T11:00:28;7.63;;;3.75;;
42124;SDS011;27787;44.594;11.046;2023-05-19T11:03:15;7.10;;;3.30;;
42124;SDS011;27787;44.594;11.046;2023-05-19T11:09:13;7.97;;;3.42;;
42124;SDS011;27787;44.594;11.046;2023-05-19T11:12:01;5.10;;;3.30;;
42124;SDS011;27787;44.594;11.046;2023-05-19T11:14:47;5.88;;;2.78;;
42124;SDS011;27787;44.594;11.046;2023-05-19T11:17:31;5.57;;;3.03;;
42124;SDS011;27787;44.594;11.046;2023-05-19T11:23:15;6.28;;;2.83;;
42124;SDS011;27787;44.594;11.046;2023-05-19T11:26:01;4.40;;;2.53;;
42124;SDS011;27787;44.594;11.046;2023-05-19T11:28:45;5.90;;;3.47;;
42124;SDS011;27787;44.594;11.046;2023-05-19T11:31:31;7.05;;;2.78;;
42124;SDS011;27787;44.594;11.046;2023-05-19T11:34:16;4.13;;;2.40;;
42124;SDS011;27787;44.594;11.046;2023-05-19T11:37:02;7.22;;;3.35;;
42124;SDS011;27787;44.594;11.046;2023-05-19T11:39:47;4.45;;;2.40;;
42124;SDS011;27787;44.594;11.046;2023-05-19T11:42:32;4.53;;;2.40;;
42124;SDS011;27787;44.594;11.046;2023-05-19T11:48:10;5.63;;;2.47;;
42124;SDS011;27787;44.594;11.046;2023-05-19T11:50:55;5.03;;;1.95;;
42124;SDS011;27787;44.594;11.046;2023-05-19T11:53:39;4.82;;;1.90;;
42124;SDS011;27787;44.594;11.046;2023-05-19T11:56:24;5.50;;;2.08;;
42124;SDS011;27787;44.594;11.046;2023-05-19T11:59:09;4.97;;;2.20;;
42124;SDS011;27787;44.594;11.046;2023-05-19T12:01:53;3.72;;;1.70;;
42124;SDS011;27787;44.594;11.046;2023-05-19T12:04:37;3.47;;;2.10;;
42124;SDS011;27787;44.594;11.046;2023-05-19T12:07:22;7.10;;;2.58;;
42124;SDS011;27787;44.594;11.046;2023-05-19T12:10:07;2.70;;;2.00;;
42124;SDS011;27787;44.594;11.046;2023-05-19T12:12:53;5.85;;;2.50;;
42124;SDS011;27787;44.594;11.046;2023-05-19T12:15:37;2.58;;;2.00;;
42124;SDS011;27787;44.594;11.046;2023-05-19T12:18:21;3.03;;;2.13;;
42124;SDS011;27787;44.594;11.046;2023-05-19T12:21:05;2.10;;;1.55;;
42124;SDS011;27787;44.594;11.046;2023-05-19T12:23:50;6.85;;;2.20;;
42124;SDS011;27787;44.594;11.046;2023-05-19T12:26:35;4.15;;;1.95;;
42124;SDS011;27787;44.594;11.046;2023-05-19T12:29:20;4.95;;;2.47;;
42124;SDS011;27787;44.594;11.046;2023-05-19T12:32:06;8.55;;;2.10;;
42124;SDS011;27787;44.594;11.046;2023-05-19T12:34:50;6.07;;;2.67;;
42124;SDS011;27787;44.594;11.046;2023-05-19T12:37:36;4.28;;;2.00;;
42124;SDS011;27787;44.594;11.046;2023-05-19T12:40:24;4.55;;;2.30;;
42124;SDS011;27787;44.594;11.046;2023-05-19T12:43:19;5.18;;;2.42;;
42124;SDS011;27787;44.594;11.046;2023-05-19T12:46:10;4.50;;;2.33;;
42124;SDS011;27787;44.594;11.046;2023-05-19T12:48:57;4.88;;;3.00;;
42124;SDS011;27787;44.594;11.046;2023-05-19T12:51:50;3.17;;;2.30;;
42124;SDS011;27787;44.594;11.046;2023-05-19T12:54:35;5.70;;;2.20;;
42124;SDS011;27787;44.594;11.046;2023-05-19T12:57:19;3.28;;;1.92;;
42124;SDS011;27787;44.594;11.046;2023-05-19T13:00:14;4.45;;;2.10;;
42124;SDS011;27787;44.594;11.046;2023-05-19T13:03:04;4.65;;;2.72;;
42124;SDS011;27787;44.594;11.046;2023-05-19T13:05:49;8.82;;;2.35;;
42124;SDS011;27787;44.594;11.046;2023-05-19T13:08:34;5.72;;;2.05;;
42124;SDS011;27787;44.594;11.046;2023-05-19T13:11:19;5.90;;;2.10;;
42124;SDS011;27787;44.594;11.046;2023-05-19T13:14:03;4.75;;;2.08;;
42124;SDS011;27787;44.594;11.046;2023-05-19T13:16:47;7.18;;;2.63;;
42124;SDS011;27787;44.594;11.046;2023-05-19T13:19:31;4.43;;;2.80;;
42124;SDS011;27787;44.594;11.046;2023-05-19T13:22:15;3.08;;;2.33;;
42124;SDS011;27787;44.594;11.046;2023-05-19T13:25:00;4.15;;;2.00;;
42124;SDS011;27787;44.594;11.046;2023-05-19T13:27:45;4.32;;;2.22;;
42124;SDS011;27787;44.594;11.046;2023-05-19T13:30:30;6.70;;;2.05;;
42124;SDS011;27787;44.594;11.046;2023-05-19T13:33:15;3.13;;;1.90;;
42124;SDS011;27787;44.594;11.046;2023-05-19T13:36:00;6.47;;;2.30;;
42124;SDS011;27787;44.594;11.046;2023-05-19T13:38:44;6.22;;;2.20;;
42124;SDS011;27787;44.594;11.046;2023-05-19T13:41:28;5.90;;;2.13;;
42124;SDS011;27787;44.594;11.046;2023-05-19T13:44:12;4.82;;;2.60;;
42124;SDS011;27787;44.594;11.046;2023-05-19T13:46:57;6.10;;;2.50;;
42124;SDS011;27787;44.594;11.046;2023-05-19T13:49:41;3.72;;;2.10;;
42124;SDS011;27787;44.594;11.046;2023-05-19T13:52:25;5.95;;;2.13;;
42124;SDS011;27787;44.594;11.046;2023-05-19T13:55:09;3.90;;;2.33;;
42124;SDS011;27787;44.594;11.046;2023-05-19T13:57:53;3.20;;;2.08;;
42124;SDS011;27787;44.594;11.046;2023-05-19T14:00:38;3.05;;;2.10;;
42124;SDS011;27787;44.594;11.046;2023-05-19T14:03:22;5.28;;;2.40;;
42124;SDS011;27787;44.594;11.046;2023-05-19T14:06:07;4.25;;;2.40;;
42124;SDS011;27787;44.594;11.046;2023-05-19T14:08:52;7.65;;;2.33;;
42124;SDS011;27787;44.594;11.046;2023-05-19T14:11:36;4.13;;;2.58;;
42124;SDS011;27787;44.594;11.046;2023-05-19T14:14:20;5.20;;;2.10;;
42124;SDS011;27787;44.594;11.046;2023-05-19T14:17:05;2.33;;;1.50;;
42124;SDS011;27787;44.594;11.046;2023-05-19T14:19:49;5.57;;;1.75;;
42124;SDS011;27787;44.594;11.046;2023-05-19T14:22:33;5.13;;;2.00;;
42124;SDS011;27787;44.594;11.046;2023-05-19T14:25:18;3.38;;;1.70;;
42124;SDS011;27787;44.594;11.046;2023-05-19T14:28:02;2.70;;;1.48;;
42124;SDS011;27787;44.594;11.046;2023-05-19T14:30:46;3.70;;;1.52;;
42124;SDS011;27787;44.594;11.046;2023-05-19T14:33:31;4.93;;;1.70;;
42124;SDS011;27787;44.594;11.046;2023-05-19T14:36:15;2.50;;;1.70;;
42124;SDS011;27787;44.594;11.046;2023-05-19T14:39:00;1.80;;;1.17;;
42124;SDS011;27787;44.594;11.046;2023-05-19T14:41:44;3.45;;;1.10;;
42124;SDS011;27787;44.594;11.046;2023-05-19T14:44:30;1.90;;;1.10;;
42124;SDS011;27787;44.594;11.046;2023-05-19T14:47:15;3.45;;;1.58;;
42124;SDS011;27787;44.594;11.046;2023-05-19T14:49:59;6.55;;;1.30;;
42124;SDS011;27787;44.594;11.046;2023-05-19T14:52:43;3.22;;;1.50;;
42124;SDS011;27787;44.594;11.046;2023-05-19T14:58:13;1.95;;;1.10;;
42124;SDS011;27787;44.594;11.046;2023-05-19T15:00:57;3.05;;;1.60;;
42124;SDS011;27787;44.594;11.046;2023-05-19T15:03:42;3.20;;;1.30;;
42124;SDS011;27787;44.594;11.046;2023-05-19T15:06:26;1.92;;;0.98;;
42124;SDS011;27787;44.594;11.046;2023-05-19T15:09:10;3.35;;;1.17;;
42124;SDS011;27787;44.594;11.046;2023-05-19T15:11:57;2.60;;;0.80;;
42124;SDS011;27787;44.594;11.046;2023-05-19T15:14:43;2.03;;;1.25;;
42124;SDS011;27787;44.594;11.046;2023-05-19T15:17:28;5.22;;;1.10;;
42124;SDS011;27787;44.594;11.046;2023-05-19T15:20:12;2.53;;;1.20;;
42124;SDS011;27787;44.594;11.046;2023-05-19T15:22:57;2.10;;;1.20;;
42124;SDS011;27787;44.594;11.046;2023-05-19T15:25:43;3.63;;;1.35;;
42124;SDS011;27787;44.594;11.046;2023-05-19T15:28:28;3.25;;;1.13;;
42124;SDS011;27787;44.594;11.046;2023-05-19T15:31:12;3.95;;;1.00;;
42124;SDS011;27787;44.594;11.046;2023-05-19T15:33:56;2.22;;;1.25;;
42124;SDS011;27787;44.594;11.046;2023-05-19T15:36:40;1.63;;;1.20;;
42124;SDS011;27787;44.594;11.046;2023-05-19T15:39:24;4.05;;;1.23;;
42124;SDS011;27787;44.594;11.046;2023-05-19T15:42:09;4.78;;;1.55;;
42124;SDS011;27787;44.594;11.046;2023-05-19T15:44:55;2.90;;;1.55;;
42124;SDS011;27787;44.594;11.046;2023-05-19T15:47:40;2.83;;;1.02;;
42124;SDS011;27787;44.594;11.046;2023-05-19T15:50:24;2.00;;;0.80;;
42124;SDS011;27787;44.594;11.046;2023-05-19T15:53:09;3.63;;;0.98;;
42124;SDS011;27787;44.594;11.046;2023-05-19T15:55:54;4.60;;;1.15;;
42124;SDS011;27787;44.594;11.046;2023-05-19T15:58:40;6.13;;;1.83;;
42124;SDS011;27787;44.594;11.046;2023-05-19T16:01:24;2.80;;;0.80;;
42124;SDS011;27787;44.594;11.046;2023-05-19T16:04:09;1.40;;;0.95;;
42124;SDS011;27787;44.594;11.046;2023-05-19T16:06:53;3.10;;;1.00;;
42124;SDS011;27787;44.594;11.046;2023-05-19T16:09:37;4.03;;;0.90;;
42124;SDS011;27787;44.594;11.046;2023-05-19T16:12:21;5.70;;;1.00;;
42124;SDS011;27787;44.594;11.046;2023-05-19T16:15:07;2.67;;;0.98;;
42124;SDS011;27787;44.594;11.046;2023-05-19T16:17:52;2.38;;;0.85;;
42124;SDS011;27787;44.594;11.046;2023-05-19T16:20:37;5.82;;;0.93;;
42124;SDS011;27787;44.594;11.046;2023-05-19T16:23:22;1.95;;;0.85;;
42124;SDS011;27787;44.594;11.046;2023-05-19T16:26:07;2.15;;;1.23;;
42124;SDS011;27787;44.594;11.046;2023-05-19T16:28:52;7.15;;;1.50;;
42124;SDS011;27787;44.594;11.046;2023-05-19T16:31:36;2.30;;;1.25;;
42124;SDS011;27787;44.594;11.046;2023-05-19T16:34:20;6.85;;;1.30;;
42124;SDS011;27787;44.594;11.046;2023-05-19T16:37:04;3.47;;;0.77;;
42124;SDS011;27787;44.594;11.046;2023-05-19T16:39:48;2.15;;;0.88;;
42124;SDS011;27787;44.594;11.046;2023-05-19T16:42:32;1.73;;;1.08;;
42124;SDS011;27787;44.594;11.046;2023-05-19T16:45:18;5.40;;;1.15;;
42124;SDS011;27787;44.594;11.046;2023-05-19T16:48:02;5.28;;;1.45;;
42124;SDS011;27787;44.594;11.046;2023-05-19T16:50:47;13.05;;;1.20;;
42124;SDS011;27787;44.594;11.046;2023-05-19T16:53:31;3.13;;;1.25;;
42124;SDS011;27787;44.594;11.046;2023-05-19T16:56:15;4.45;;;1.10;;
42124;SDS011;27787;44.594;11.046;2023-05-19T16:58:59;3.75;;;1.25;;
42124;SDS011;27787;44.594;11.046;2023-05-19T17:01:43;2.85;;;1.10;;
42124;SDS011;27787;44.594;11.046;2023-05-19T17:04:27;7.97;;;1.30;;
42124;SDS011;27787;44.594;11.046;2023-05-19T17:07:11;1.85;;;1.10;;
42124;SDS011;27787;44.594;11.046;2023-05-19T17:09:58;2.53;;;1.27;;
42124;SDS011;27787;44.594;11.046;2023-05-19T17:12:42;7.18;;;1.45;;
42124;SDS011;27787;44.594;11.046;2023-05-19T17:15:26;3.08;;;1.38;;
42124;SDS011;27787;44.594;11.046;2023-05-19T17:18:11;4.57;;;1.40;;
42124;SDS011;27787;44.594;11.046;2023-05-19T17:20:55;6.13;;;1.60;;